Fairhaven, Washington
Current Conditions -  °F | °C
As of 9:53 PM on Saturday 22 Nov 2014 (Local Time) from KBLI Reporting Station
Overcast Overcast  
Wind Chill: 44°   Ceiling: 5000
Heat Index: 48°   Visibility: 10mi
Dew Point: 41°   Wind: 9mph
Humidity: 77%   Direction: 170°S
Pressure: 30.05"   Gusts: NA
Location:  48.7531°N, 122.502°W
Report Text: KBLI 230553Z AUTO 17008KT 10SM BKN050 OVC075 09/05 A3005 RMK AO2 SLP183 T00890050 10094 20078 51020 TSNO
Loading
Personal Weather Stations






























Interactive Weather Map New forecast layout! Learn more

10-Day Weather Forecast

Advertisements
Track Severe Weather on mobile